Time;durP1;ratioP1;P1;durP2;ratioP2;P2;SDS_P1;SDS_P2;PMS_P1;PMS_P2;Temp;Humidity;BMP_temperature;BMP_pressure;BME280_temperature;BME280_humidity;BME280_pressure;Samples;Min_cycle;Max_cycle;Signal;HPM_P1;HPM_P2
2022/04/23 00:02:10;;;;;;;32.15;13.27;;;10.80;89.50;;;;;;5074247;28;20031;-50
2022/04/23 00:04:36;;;;;;;39.00;13.60;;;10.90;89.70;;;;;;5074074;28;20037;-48
2022/04/23 00:07:02;;;;;;;31.40;12.55;;;10.80;89.80;;;;;;5074287;28;20056;-48
2022/04/23 00:09:27;;;;;;;36.35;12.50;;;10.80;89.90;;;;;;5073749;28;20518;-52
2022/04/23 00:11:55;;;;;;;29.42;13.45;;;10.80;90.00;;;;;;5074217;28;20035;-47
2022/04/23 00:14:21;;;;;;;30.45;13.50;;;10.80;89.90;;;;;;5073904;28;20566;-51
2022/04/23 00:16:49;;;;;;;32.45;14.15;;;10.80;90.00;;;;;;5073741;28;20582;-46
2022/04/23 00:19:14;;;;;;;34.92;13.82;;;10.80;90.00;;;;;;5073559;28;20028;-50
2022/04/23 00:21:40;;;;;;;33.75;14.05;;;10.80;90.10;;;;;;5073741;28;20078;-46
2022/04/23 00:24:06;;;;;;;37.78;14.20;;;10.80;90.10;;;;;;5073949;28;20543;-48
2022/04/23 00:26:32;;;;;;;31.95;13.20;;;10.90;90.10;;;;;;5073610;28;20483;-46
2022/04/23 00:28:57;;;;;;;29.73;12.68;;;10.90;90.10;;;;;;5073540;28;20032;-50
2022/04/23 00:31:24;;;;;;;31.25;13.40;;;10.90;90.20;;;;;;5073439;28;20037;-47
2022/04/23 00:33:50;;;;;;;31.98;12.70;;;10.90;90.00;;;;;;5073534;28;20020;-48
2022/04/23 00:36:16;;;;;;;33.60;13.32;;;10.90;90.00;;;;;;5073556;28;20544;-47
2022/04/23 00:38:42;;;;;;;29.30;13.55;;;10.90;90.10;;;;;;5073737;28;20035;-49
2022/04/23 00:41:43;;;;;;;29.77;13.38;;;10.90;90.40;;;;;;5073209;28;20035;-46
2022/04/23 00:43:54;;;;;;;31.88;14.25;;;10.90;90.20;;;;;;5073278;28;20033;-51
2022/04/23 00:46:20;;;;;;;29.25;13.32;;;10.90;90.30;;;;;;5073346;28;20024;-48
2022/04/23 00:48:46;;;;;;;29.27;13.05;;;10.90;90.30;;;;;;5073444;28;20021;-51
2022/04/23 00:51:12;;;;;;;31.88;13.32;;;10.90;90.20;;;;;;5072947;28;20520;-47
2022/04/23 00:53:38;;;;;;;34.13;14.98;;;10.90;90.40;;;;;;5073390;28;20035;-53
2022/04/23 00:56:05;;;;;;;29.08;13.68;;;10.90;90.40;;;;;;5073191;28;20487;-42
2022/04/23 00:58:31;;;;;;;31.58;14.45;;;10.90;90.40;;;;;;5073106;28;20024;-43
2022/04/23 01:00:57;;;;;;;31.52;13.38;;;10.90;90.80;;;;;;5072867;28;20438;-44
2022/04/23 01:03:22;;;;;;;36.25;14.55;;;10.90;90.60;;;;;;5073183;28;20024;-55
2022/04/23 01:05:49;;;;;;;39.15;14.55;;;10.90;90.60;;;;;;5072977;28;20506;-48
2022/04/23 01:08:18;;;;;;;37.08;14.93;;;10.90;90.70;;;;;;5073009;28;20112;-53
2022/04/23 01:10:44;;;;;;;39.55;13.85;;;10.90;90.70;;;;;;5072660;28;20032;-56
2022/04/23 01:13:11;;;;;;;35.85;14.40;;;10.90;90.70;;;;;;5072807;28;20035;-50
2022/04/23 01:15:37;;;;;;;32.35;14.48;;;10.90;90.80;;;;;;5072762;28;20372;-50
2022/04/23 01:18:03;;;;;;;34.50;14.15;;;10.90;90.80;;;;;;5072641;28;20055;-55
2022/04/23 01:20:29;;;;;;;35.83;14.90;;;10.80;90.80;;;;;;5072448;28;20505;-55
2022/04/23 01:22:54;;;;;;;32.35;15.48;;;10.90;90.80;;;;;;5072577;28;20024;-43
2022/04/23 01:25:22;;;;;;;33.75;15.00;;;10.80;90.90;;;;;;5072731;28;20056;-55
2022/04/23 01:27:51;;;;;;;30.00;14.90;;;10.80;90.90;;;;;;5072455;28;20430;-54
2022/04/23 01:30:17;;;;;;;39.45;16.45;;;10.80;91.00;;;;;;5072415;28;20048;-47
2022/04/23 01:32:43;;;;;;;38.00;15.82;;;10.90;91.30;;;;;;5072364;28;20124;-51
2022/04/23 01:35:09;;;;;;;38.47;16.25;;;10.90;91.00;;;;;;5070865;28;20470;-50
2022/04/23 01:37:34;;;;;;;37.67;15.13;;;10.90;91.00;;;;;;5072120;28;20056;-57
2022/04/23 01:40:00;;;;;;;34.42;15.02;;;10.90;91.10;;;;;;5072168;28;20464;-54
2022/04/23 01:42:26;;;;;;;40.10;15.98;;;10.90;91.10;;;;;;5072203;28;20103;-51
2022/04/23 01:44:52;;;;;;;41.10;16.33;;;10.90;91.00;;;;;;5072228;28;20037;-45
2022/04/23 01:47:19;;;;;;;40.83;15.95;;;10.90;91.00;;;;;;5071854;28;20032;-52
2022/04/23 01:49:45;;;;;;;40.35;15.90;;;10.90;91.10;;;;;;5072091;28;20072;-50
2022/04/23 01:52:14;;;;;;;39.65;15.68;;;10.90;91.10;;;;;;5072164;28;20036;-44
2022/04/23 01:54:40;;;;;;;42.67;16.92;;;10.90;91.10;;;;;;5072062;28;20074;-46
2022/04/23 01:57:06;;;;;;;37.42;15.82;;;10.90;91.10;;;;;;5071650;28;20028;-44
2022/04/23 01:59:31;;;;;;;38.15;17.00;;;10.90;91.10;;;;;;5071991;28;20025;-53
2022/04/23 02:01:58;;;;;;;38.33;16.00;;;10.90;91.10;;;;;;5071493;28;20024;-48
2022/04/23 02:04:25;;;;;;;34.88;16.80;;;10.90;91.10;;;;;;5071706;28;20387;-49
2022/04/23 02:06:50;;;;;;;33.33;16.20;;;10.90;91.00;;;;;;5071935;28;20027;-45
2022/04/23 02:09:17;;;;;;;34.42;16.38;;;10.90;91.10;;;;;;5071456;28;20454;-44
2022/04/23 02:11:43;;;;;;;37.33;15.80;;;10.90;91.10;;;;;;5071626;28;20036;-47
2022/04/23 02:14:09;;;;;;;37.65;16.77;;;11.00;91.10;;;;;;5071854;28;20025;-46
2022/04/23 02:16:35;;;;;;;39.42;17.17;;;11.00;91.10;;;;;;5071298;28;20123;-45
2022/04/23 02:19:03;;;;;;;39.33;16.67;;;11.00;91.10;;;;;;5071561;28;20024;-49
2022/04/23 02:21:29;;;;;;;32.45;15.63;;;11.00;91.10;;;;;;5071514;28;20032;-47
2022/04/23 02:23:55;;;;;;;38.58;16.80;;;11.00;91.10;;;;;;5071544;28;20024;-51
2022/04/23 02:26:21;;;;;;;38.33;15.98;;;11.00;91.10;;;;;;5071181;28;20098;-45
2022/04/23 02:28:47;;;;;;;41.20;16.48;;;11.00;91.10;;;;;;5071519;28;20024;-42
2022/04/23 02:31:13;;;;;;;39.15;16.58;;;11.00;91.10;;;;;;5071403;28;20081;-50
2022/04/23 02:33:39;;;;;;;42.80;15.88;;;11.00;90.90;;;;;;5071232;28;20139;-47
2022/04/23 02:36:08;;;;;;;42.72;16.67;;;11.00;90.90;;;;;;5071473;28;20051;-51
2022/04/23 02:38:34;;;;;;;30.70;16.67;;;11.00;91.00;;;;;;5071290;28;20017;-51
2022/04/23 02:41:00;;;;;;;38.92;17.20;;;11.10;90.80;;;;;;5071271;28;20476;-47
2022/04/23 02:43:26;;;;;;;38.47;16.20;;;11.10;90.80;;;;;;5071030;28;20028;-55
2022/04/23 02:45:52;;;;;;;34.40;16.58;;;11.10;90.80;;;;;;5071390;28;20027;-43
2022/04/23 02:48:18;;;;;;;40.45;17.08;;;11.10;90.70;;;;;;5071363;28;20077;-45
2022/04/23 02:50:44;;;;;;;38.17;17.27;;;11.10;90.70;;;;;;5069968;28;20040;-54
2022/04/23 02:53:10;;;;;;;34.63;16.83;;;11.20;90.60;;;;;;5070917;28;20445;-50
2022/04/23 02:55:37;;;;;;;38.25;15.80;;;11.20;90.60;;;;;;5071092;28;20116;-43
2022/04/23 02:58:10;;;;;;;41.75;17.98;;;11.20;90.60;;;;;;5071084;28;20017;-50
2022/04/23 03:00:38;;;;;;;38.67;18.27;;;11.20;90.50;;;;;;5071105;28;20536;-53
2022/04/23 03:03:05;;;;;;;35.13;17.67;;;11.20;90.50;;;;;;5070859;28;20017;-43
2022/04/23 03:05:31;;;;;;;39.92;18.65;;;11.20;90.50;;;;;;5070934;28;20033;-51
2022/04/23 03:08:01;;;;;;;38.75;19.00;;;11.20;90.60;;;;;;5070940;28;20066;-50
2022/04/23 03:10:28;;;;;;;42.88;18.00;;;11.20;90.80;;;;;;5071097;28;20044;-53
2022/04/23 03:12:56;;;;;;;46.38;18.65;;;11.20;90.50;;;;;;5070935;28;20104;-46
2022/04/23 03:15:23;;;;;;;44.25;19.25;;;11.30;90.40;;;;;;5070877;28;20124;-48
2022/04/23 03:17:49;;;;;;;37.22;18.10;;;11.30;90.30;;;;;;5070769;28;20521;-46
2022/04/23 03:20:15;;;;;;;39.53;18.50;;;11.30;90.40;;;;;;5070942;28;20036;-53
2022/04/23 03:22:42;;;;;;;34.30;17.95;;;11.30;90.40;;;;;;5070843;28;20024;-46
2022/04/23 03:25:09;;;;;;;39.78;18.20;;;11.30;90.30;;;;;;5070650;28;20032;-45
2022/04/23 03:27:35;;;;;;;40.60;19.20;;;11.30;90.20;;;;;;5070783;28;20032;-55
2022/04/23 03:30:02;;;;;;;38.65;19.92;;;11.30;90.20;;;;;;5070846;28;20037;-51
2022/04/23 03:32:27;;;;;;;40.90;20.60;;;11.30;90.10;;;;;;5070888;28;20472;-59
2022/04/23 03:34:53;;;;;;;38.45;19.77;;;11.30;90.10;;;;;;5070508;28;20032;-60
2022/04/23 03:37:19;;;;;;;41.55;20.80;;;11.30;90.10;;;;;;5070665;28;20028;-56
2022/04/23 03:39:45;;;;;;;40.88;19.95;;;11.30;90.10;;;;;;5070930;28;20021;-47
2022/04/23 03:42:11;;;;;;;34.28;18.70;;;11.30;90.10;;;;;;5070038;28;20032;-46
2022/04/23 03:44:37;;;;;;;45.20;20.15;;;11.30;90.20;;;;;;5069881;28;20032;-47
2022/04/23 03:47:03;;;;;;;41.00;21.40;;;11.30;90.30;;;;;;5070397;28;20040;-43
2022/04/23 03:49:29;;;;;;;41.00;21.90;;;11.30;90.20;;;;;;5070551;28;20036;-52
2022/04/23 03:51:55;;;;;;;39.50;20.48;;;11.30;90.10;;;;;;5069606;28;20064;-50
2022/04/23 03:54:20;;;;;;;45.78;20.23;;;11.30;90.20;;;;;;5070375;28;20067;-48
2022/04/23 03:56:47;;;;;;;39.25;21.70;;;11.30;90.20;;;;;;5070533;28;20382;-48
2022/04/23 03:59:13;;;;;;;44.45;22.98;;;11.30;90.00;;;;;;5070408;28;20031;-49
2022/04/23 04:01:38;;;;;;;44.85;23.60;;;11.30;89.80;;;;;;5071793;28;20036;-51
2022/04/23 04:04:05;;;;;;;39.28;24.92;;;11.30;89.30;;;;;;5073657;28;20031;-42
2022/04/23 04:06:31;;;;;;;47.40;24.33;;;11.40;89.20;;;;;;5074383;28;20075;-48
2022/04/23 04:08:56;;;;;;;48.28;25.20;;;11.40;88.90;;;;;;5074027;28;20044;-47
2022/04/23 04:11:22;;;;;;;43.13;24.92;;;11.40;88.80;;;;;;5074113;28;20094;-46
2022/04/23 04:13:48;;;;;;;37.63;23.27;;;11.40;88.60;;;;;;5073833;28;20492;-43
2022/04/23 04:16:14;;;;;;;40.20;24.80;;;11.40;88.50;;;;;;5073850;28;20120;-52
2022/04/23 04:18:40;;;;;;;41.67;25.08;;;11.40;88.60;;;;;;5073667;28;20016;-48
2022/04/23 04:21:07;;;;;;;44.65;25.35;;;11.40;88.10;;;;;;5074042;28;20055;-52
2022/04/23 04:23:32;;;;;;;38.35;24.30;;;11.40;88.10;;;;;;5073493;28;20020;-53
2022/04/23 04:25:58;;;;;;;41.88;24.67;;;11.40;88.00;;;;;;5073765;28;20031;-54
2022/04/23 04:28:24;;;;;;;41.88;26.02;;;11.40;88.40;;;;;;5073705;28;20048;-50
2022/04/23 04:33:50;;;;;;;44.17;25.55;;;11.40;87.80;;;;;;5031121;28;20484;-44
2022/04/23 04:36:16;;;;;;;44.25;25.90;;;11.40;88.00;;;;;;5064666;28;20067;-49
2022/04/23 04:38:41;;;;;;;40.22;26.17;;;11.40;87.90;;;;;;5072276;28;20028;-48
2022/04/23 04:41:07;;;;;;;45.17;27.40;;;11.30;87.90;;;;;;5073480;28;20028;-42
2022/04/23 04:43:33;;;;;;;41.53;25.40;;;11.30;87.70;;;;;;5073141;28;20105;-51
2022/04/23 04:45:59;;;;;;;42.10;26.65;;;11.30;87.70;;;;;;5073416;28;20028;-54
2022/04/23 04:48:24;;;;;;;45.25;27.77;;;11.40;87.70;;;;;;5072972;28;20105;-45
2022/04/23 04:50:50;;;;;;;40.63;26.83;;;11.40;87.60;;;;;;5073215;28;20037;-50
2022/04/23 04:53:15;;;;;;;38.45;27.13;;;11.40;87.70;;;;;;5073053;28;20020;-45
2022/04/23 04:55:41;;;;;;;39.85;26.92;;;11.30;87.90;;;;;;5073311;28;20527;-53
2022/04/23 04:58:07;;;;;;;39.47;26.35;;;11.40;87.20;;;;;;5073163;28;20024;-46
2022/04/23 05:00:33;;;;;;;39.95;26.50;;;11.40;87.20;;;;;;5073130;28;20100;-46
2022/04/23 05:02:59;;;;;;;44.85;27.60;;;11.40;87.10;;;;;;5072989;28;20020;-47
2022/04/23 05:05:24;;;;;;;37.67;25.67;;;11.40;86.90;;;;;;5072822;28;20020;-54
2022/04/23 05:07:50;;;;;;;40.20;27.98;;;11.40;87.10;;;;;;5073041;28;20083;-50
2022/04/23 05:10:16;;;;;;;41.25;27.25;;;11.40;86.80;;;;;;5072848;28;20395;-58
2022/04/23 05:12:41;;;;;;;43.83;27.63;;;11.40;87.00;;;;;;5071935;28;20415;-54
2022/04/23 05:15:07;;;;;;;42.88;27.85;;;11.40;86.70;;;;;;5072457;28;20062;-42
2022/04/23 05:17:38;;;;;;;40.47;26.55;;;11.40;86.80;;;;;;5072519;28;20059;-45
2022/04/23 05:20:04;;;;;;;42.22;26.50;;;11.40;86.50;;;;;;5071541;28;20025;-49
2022/04/23 05:22:31;;;;;;;41.95;27.90;;;11.40;86.60;;;;;;5072677;28;20577;-51
2022/04/23 05:24:57;;;;;;;41.30;27.58;;;11.40;86.30;;;;;;5072444;28;20028;-48
2022/04/23 05:27:26;;;;;;;41.70;27.80;;;11.40;86.40;;;;;;5072703;28;20208;-46
2022/04/23 05:29:51;;;;;;;44.53;28.02;;;11.40;86.60;;;;;;5072601;28;20041;-45
2022/04/23 05:32:17;;;;;;;40.90;27.90;;;11.40;86.40;;;;;;5072518;28;20690;-50
2022/04/23 05:34:43;;;;;;;38.55;27.30;;;11.50;86.20;;;;;;5071499;28;20031;-43
2022/04/23 05:37:09;;;;;;;40.47;27.60;;;11.40;86.10;;;;;;5064303;28;20027;-56
2022/04/23 05:39:35;;;;;;;40.13;28.23;;;11.50;85.90;;;;;;5071112;28;20016;-51
2022/04/23 05:42:00;;;;;;;37.85;26.48;;;11.50;85.60;;;;;;5071458;28;20054;-53
2022/04/23 05:44:26;;;;;;;37.95;27.40;;;11.50;85.70;;;;;;5071960;28;20036;-53
2022/04/23 05:46:52;;;;;;;38.40;27.15;;;11.50;86.00;;;;;;5072414;28;20024;-46
2022/04/23 05:49:18;;;;;;;41.67;27.25;;;11.60;86.00;;;;;;5070987;28;20483;-45
2022/04/23 05:51:43;;;;;;;38.05;26.63;;;11.50;86.00;;;;;;5068727;28;20016;-55
2022/04/23 05:54:09;;;;;;;43.63;28.20;;;11.50;85.70;;;;;;5070522;28;20438;-50
2022/04/23 05:56:35;;;;;;;37.28;26.70;;;11.60;86.30;;;;;;5070922;28;20095;-46
2022/04/23 05:59:00;;;;;;;36.42;26.52;;;11.60;85.50;;;;;;5071019;28;20021;-47
2022/04/23 06:01:26;;;;;;;36.97;26.60;;;11.60;85.60;;;;;;5071678;28;20455;-54
2022/04/23 06:03:51;;;;;;;38.25;26.63;;;11.60;85.70;;;;;;5071516;28;20039;-53
2022/04/23 06:06:19;;;;;;;34.90;25.13;;;11.60;85.20;;;;;;5067404;28;20036;-48
2022/04/23 06:08:44;;;;;;;35.40;25.80;;;11.60;85.40;;;;;;5068549;28;20082;-49
2022/04/23 06:11:10;;;;;;;41.38;26.58;;;11.70;85.50;;;;;;5071546;28;20032;-47
2022/04/23 06:13:35;;;;;;;37.97;26.60;;;11.70;85.50;;;;;;5069844;28;20031;-43
2022/04/23 06:16:01;;;;;;;35.63;25.17;;;11.70;85.20;;;;;;5071169;28;20650;-50
2022/04/23 06:18:27;;;;;;;35.25;27.13;;;11.70;85.30;;;;;;5071412;28;20067;-57
2022/04/23 06:20:52;;;;;;;35.38;25.70;;;11.70;85.20;;;;;;5069869;28;20051;-53
2022/04/23 06:23:18;;;;;;;37.72;26.52;;;11.80;85.30;;;;;;5067109;28;20028;-41
2022/04/23 06:25:43;;;;;;;33.85;25.65;;;11.80;84.90;;;;;;5071106;28;20503;-51
2022/04/23 06:28:10;;;;;;;33.53;24.65;;;11.90;84.60;;;;;;5070264;28;20043;-49
2022/04/23 06:30:37;;;;;;;31.95;24.38;;;12.00;85.00;;;;;;5071373;28;20126;-60
2022/04/23 06:33:03;;;;;;;36.20;25.08;;;12.10;84.30;;;;;;5071295;28;20035;-47
2022/04/23 06:35:30;;;;;;;32.55;24.20;;;12.10;84.20;;;;;;5071335;28;20025;-44
2022/04/23 06:37:55;;;;;;;38.50;25.00;;;12.20;84.10;;;;;;5071361;28;20074;-54
2022/04/23 06:40:21;;;;;;;35.10;24.30;;;12.20;83.30;;;;;;5070427;28;20020;-48
2022/04/23 06:42:47;;;;;;;29.05;23.10;;;12.30;82.60;;;;;;5069125;28;20067;-42
2022/04/23 06:45:13;;;;;;;35.50;24.00;;;12.40;83.20;;;;;;5069355;28;20060;-46
2022/04/23 06:47:38;;;;;;;36.40;24.00;;;12.40;83.00;;;;;;5069138;28;20020;-52
2022/04/23 06:50:06;;;;;;;33.30;24.52;;;12.50;82.20;;;;;;5069207;28;20032;-42
2022/04/23 06:52:32;;;;;;;32.17;23.90;;;12.60;82.30;;;;;;5069048;28;20064;-45
2022/04/23 06:54:58;;;;;;;36.58;23.58;;;12.70;81.20;;;;;;5069472;28;20496;-47
2022/04/23 06:57:24;;;;;;;34.67;22.80;;;12.80;81.50;;;;;;5071313;28;20028;-54
2022/04/23 06:59:51;;;;;;;32.80;22.85;;;13.00;80.40;;;;;;5071040;28;20480;-54
2022/04/23 07:02:18;;;;;;;31.75;23.58;;;13.00;80.40;;;;;;5070908;28;20051;-44
2022/04/23 07:04:44;;;;;;;31.38;23.33;;;13.20;79.00;;;;;;5071055;28;20532;-51
2022/04/23 07:07:10;;;;;;;34.92;22.40;;;13.30;78.90;;;;;;5070923;28;20025;-49
2022/04/23 07:09:36;;;;;;;29.35;22.83;;;13.30;79.10;;;;;;5070596;28;20044;-49
2022/04/23 07:12:03;;;;;;;29.95;22.10;;;13.20;78.50;;;;;;5070025;28;20028;-48
2022/04/23 07:14:29;;;;;;;30.50;22.90;;;13.40;78.00;;;;;;5070206;28;20021;-46
2022/04/23 07:16:55;;;;;;;32.33;21.95;;;13.50;78.20;;;;;;5070203;28;20098;-56
2022/04/23 07:19:20;;;;;;;26.25;21.42;;;14.20;78.70;;;;;;5070234;28;20040;-55
2022/04/23 07:21:46;;;;;;;23.83;19.98;;;14.90;73.20;;;;;;5070038;28;20400;-41
2022/04/23 07:24:13;;;;;;;25.98;20.88;;;15.50;70.40;;;;;;5070249;28;20039;-51
2022/04/23 07:26:39;;;;;;;25.83;19.13;;;16.10;68.20;;;;;;5070197;28;20027;-46
2022/04/23 07:29:07;;;;;;;22.88;18.40;;;17.00;65.90;;;;;;5070413;28;20039;-47
2022/04/23 07:31:34;;;;;;;23.52;18.70;;;17.60;63.80;;;;;;5069893;28;20040;-46
2022/04/23 07:39:29;;;;;;;22.48;17.55;;;19.50;55.70;;;;;;5074278;28;20504;-48
2022/04/23 07:41:54;;;;;;;19.20;16.20;;;19.70;55.00;;;;;;5073762;28;20052;-44
2022/04/23 07:44:24;;;;;;;20.33;16.42;;;20.20;55.80;;;;;;5073630;28;20040;-48
2022/04/23 07:46:50;;;;;;;21.60;15.32;;;19.70;54.00;;;;;;5073823;28;20062;-45
2022/04/23 07:49:16;;;;;;;20.75;16.77;;;21.00;55.40;;;;;;5073612;28;20103;-46
2022/04/23 07:51:43;;;;;;;20.40;16.42;;;21.00;49.30;;;;;;5073507;28;20032;-55
2022/04/23 07:54:09;;;;;;;18.23;15.13;;;20.30;50.20;;;;;;5073860;28;20027;-49
2022/04/23 07:56:35;;;;;;;18.90;14.57;;;21.20;52.20;;;;;;5073708;28;20020;-54
2022/04/23 07:59:02;;;;;;;17.67;15.43;;;22.50;50.50;;;;;;5073331;28;20484;-44
2022/04/23 08:01:28;;;;;;;18.20;15.95;;;22.70;44.40;;;;;;5073251;28;20103;-51
2022/04/23 08:03:53;;;;;;;18.67;14.73;;;22.30;44.40;;;;;;5073410;28;20052;-54
2022/04/23 08:06:19;;;;;;;17.58;14.23;;;22.70;46.80;;;;;;5073348;28;20028;-52
2022/04/23 08:08:45;;;;;;;17.65;14.98;;;22.80;45.00;;;;;;5073433;28;20035;-51
2022/04/23 08:11:11;;;;;;;16.30;14.60;;;22.80;48.00;;;;;;5073003;28;20032;-44
2022/04/23 08:13:37;;;;;;;17.98;15.55;;;22.60;45.00;;;;;;5073321;28;20633;-50
2022/04/23 08:16:04;;;;;;;15.18;13.23;;;23.40;44.50;;;;;;5072943;28;20025;-44
2022/04/23 08:18:31;;;;;;;19.23;15.93;;;24.60;43.60;;;;;;5073302;28;20028;-49
2022/04/23 08:20:56;;;;;;;17.63;15.40;;;23.60;42.00;;;;;;5073231;28;20081;-49
2022/04/23 08:23:22;;;;;;;19.58;14.88;;;22.90;43.10;;;;;;5073275;28;20108;-42
2022/04/23 08:25:48;;;;;;;18.35;14.82;;;22.50;46.90;;;;;;5073321;28;20036;-46
2022/04/23 08:30:59;;;;;;;16.13;14.43;;;24.20;42.70;;;;;;5072898;28;20104;-47
2022/04/23 08:33:57;;;;;;;17.33;14.20;;;25.00;42.30;;;;;;5072891;28;20102;-53
2022/04/23 08:36:10;;;;;;;16.58;14.00;;;25.10;40.70;;;;;;5072833;28;20036;-53
2022/04/23 08:38:36;;;;;;;16.67;14.18;;;25.80;39.40;;;;;;5072782;28;20021;-51
2022/04/23 08:41:04;;;;;;;19.48;15.48;;;24.70;38.40;;;;;;5072703;28;20025;-46
2022/04/23 08:43:32;;;;;;;18.70;14.50;;;23.00;40.00;;;;;;5073114;28;20201;-53
2022/04/23 08:46:02;;;;;;;16.33;14.48;;;23.10;43.50;;;;;;5073077;28;20436;-53
2022/04/23 08:48:35;;;;;;;20.77;15.15;;;23.70;42.20;;;;;;5073221;28;20036;-58
2022/04/23 08:51:02;;;;;;;17.77;15.35;;;22.50;41.70;;;;;;5072866;28;20028;-50
2022/04/23 08:53:30;;;;;;;17.83;15.02;;;21.90;44.70;;;;;;5072951;28;20369;-49
2022/04/23 08:55:56;;;;;;;18.38;15.65;;;21.90;45.40;;;;;;5072799;28;20024;-50
2022/04/23 08:58:23;;;;;;;19.25;16.38;;;21.60;44.10;;;;;;5073303;28;20017;-44
2022/04/23 09:00:49;;;;;;;19.80;15.77;;;20.70;47.50;;;;;;5072695;28;20028;-56
2022/04/23 09:03:16;;;;;;;20.33;17.13;;;20.00;49.30;;;;;;5072627;28;20023;-52
2022/04/23 09:05:43;;;;;;;33.42;17.58;;;18.90;50.90;;;;;;5072667;28;20111;-48
2022/04/23 09:08:09;;;;;;;21.65;17.45;;;18.30;55.50;;;;;;5072619;28;20020;-50
2022/04/23 09:10:46;;;;;;;21.15;17.33;;;17.80;56.90;;;;;;5072217;28;20189;-48
2022/04/23 09:13:25;;;;;;;24.02;18.30;;;18.20;57.70;;;;;;5072849;28;20032;-51
2022/04/23 09:24:19;;;;;;;20.30;15.85;;;21.10;53.90;;;;;;5072438;28;20059;-49
2022/04/23 09:27:06;;;;;;;19.10;15.80;;;22.50;46.50;;;;;;5072423;28;20387;-57
2022/04/23 09:29:32;;;;;;;17.33;14.85;;;23.50;44.10;;;;;;5072076;28;20546;-52
2022/04/23 09:32:19;;;;;;;20.13;15.10;;;23.80;41.80;;;;;;5072443;28;20100;-43
2022/04/23 09:34:44;;;;;;;23.30;15.32;;;24.30;40.40;;;;;;5072264;28;20028;-47
2022/04/23 09:37:10;;;;;;;16.52;14.55;;;24.20;39.60;;;;;;5072099;28;20025;-47
2022/04/23 09:39:38;;;;;;;16.83;15.13;;;24.40;39.90;;;;;;5072006;28;20048;-50
2022/04/23 09:42:19;;;;;;;19.63;15.55;;;24.10;41.10;;;;;;5072097;28;20032;-49
2022/04/23 09:44:46;;;;;;;19.83;16.50;;;24.60;38.50;;;;;;5072163;28;20045;-43
2022/04/23 09:47:29;;;;;;;18.02;14.45;;;23.30;41.20;;;;;;5072121;28;20025;-48
2022/04/23 09:49:55;;;;;;;19.20;16.73;;;24.60;42.70;;;;;;5071603;28;20549;-51
2022/04/23 09:52:28;;;;;;;19.35;13.88;;;24.00;39.10;;;;;;5071420;28;20032;-48
2022/04/23 09:54:55;;;;;;;20.77;15.68;;;24.90;43.20;;;;;;5071728;28;20036;-51
2022/04/23 09:57:22;;;;;;;20.23;15.60;;;24.90;39.00;;;;;;5071499;28;20040;-50
2022/04/23 09:59:52;;;;;;;17.85;14.88;;;24.70;39.00;;;;;;5070985;28;20107;-49
2022/04/23 10:02:21;;;;;;;18.30;15.75;;;25.10;41.40;;;;;;5071357;28;20024;-44
2022/04/23 10:04:47;;;;;;;19.17;16.10;;;25.30;38.80;;;;;;5071001;28;20383;-43
2022/04/23 10:07:17;;;;;;;18.40;14.70;;;25.40;38.80;;;;;;5071361;28;20082;-48
2022/04/23 10:09:47;;;;;;;22.05;16.40;;;25.10;40.10;;;;;;5071258;28;20032;-46
2022/04/23 10:12:17;;;;;;;18.52;16.20;;;25.10;40.30;;;;;;5071056;28;20073;-47
2022/04/23 10:14:49;;;;;;;20.92;16.85;;;24.90;40.80;;;;;;5071082;28;20024;-49
2022/04/23 10:17:20;;;;;;;18.80;15.65;;;23.90;39.90;;;;;;5070608;28;20036;-49
2022/04/23 10:19:46;;;;;;;19.88;15.73;;;24.50;42.60;;;;;;5071157;28;20032;-55
2022/04/23 10:22:19;;;;;;;19.30;15.93;;;24.50;39.30;;;;;;5070872;28;20028;-45
2022/04/23 10:25:09;;;;;;;18.23;15.90;;;25.40;40.10;;;;;;5070925;28;20452;-49
2022/04/23 10:27:36;;;;;;;19.85;15.85;;;25.90;40.10;;;;;;5070714;28;20471;-45
2022/04/23 10:30:04;;;;;;;19.85;15.88;;;26.10;38.20;;;;;;5071107;28;20040;-47
2022/04/23 10:32:40;;;;;;;19.50;15.20;;;26.60;38.70;;;;;;5070660;28;20089;-44
2022/04/23 10:35:33;;;;;;;18.08;15.70;;;27.00;36.70;;;;;;5070997;28;20331;-43
2022/04/23 10:38:16;;;;;;;17.45;13.82;;;27.20;36.60;;;;;;5069682;28;20028;-49
2022/04/23 10:40:42;;;;;;;18.58;15.13;;;28.10;37.00;;;;;;5070882;28;20028;-45
2022/04/23 10:43:09;;;;;;;19.08;15.80;;;27.40;34.20;;;;;;5070749;28;20024;-50
2022/04/23 10:45:38;;;;;;;19.15;15.68;;;26.60;34.20;;;;;;5069428;28;20051;-46
2022/04/23 10:48:24;;;;;;;18.42;14.63;;;26.50;36.90;;;;;;5070778;28;20104;-43
2022/04/23 10:51:11;;;;;;;18.73;15.27;;;26.40;37.90;;;;;;5070178;28;20751;-48
2022/04/23 10:53:41;;;;;;;17.77;15.93;;;27.20;37.10;;;;;;5070484;28;20039;-46
2022/04/23 10:56:12;;;;;;;20.90;16.20;;;26.40;37.60;;;;;;5070127;28;20028;-48
2022/04/23 10:58:38;;;;;;;21.33;16.02;;;25.70;37.80;;;;;;5068344;28;20017;-47
2022/04/23 11:01:27;;;;;;;17.65;15.48;;;26.20;38.50;;;;;;5068492;28;20036;-50
2022/04/23 11:03:53;;;;;;;17.52;14.80;;;26.60;37.70;;;;;;5067145;28;20475;-52
2022/04/23 11:12:28;;;;;;;19.48;17.00;;;24.20;39.60;;;;;;5069940;28;20396;-43
2022/04/23 11:14:56;;;;;;;26.70;18.63;;;25.20;40.30;;;;;;5072762;28;20024;-43
2022/04/23 11:17:49;;;;;;;24.98;19.15;;;24.60;38.10;;;;;;5073099;28;20059;-51
2022/04/23 11:20:25;;;;;;;21.35;17.75;;;24.50;38.90;;;;;;5068924;28;20029;-54
2022/04/23 11:22:51;;;;;;;21.63;18.35;;;24.70;40.00;;;;;;5073352;28;20432;-47
2022/04/23 11:25:17;;;;;;;22.42;18.00;;;24.20;38.30;;;;;;5071982;28;20056;-52
2022/04/23 11:27:48;;;;;;;20.85;18.65;;;24.60;38.90;;;;;;5073472;28;20544;-44
2022/04/23 11:30:14;;;;;;;23.55;19.42;;;24.20;38.70;;;;;;5072737;28;20044;-42
2022/04/23 11:32:39;;;;;;;23.70;18.60;;;23.80;39.80;;;;;;5072810;28;20036;-50
2022/04/23 11:35:07;;;;;;;23.05;18.75;;;24.10;41.40;;;;;;5072474;28;20175;-43
2022/04/23 11:37:39;;;;;;;27.92;19.60;;;23.50;40.50;;;;;;5072762;28;20158;-46
2022/04/23 11:40:13;;;;;;;23.40;19.80;;;23.00;41.80;;;;;;5072477;28;20028;-51
2022/04/23 11:42:44;;;;;;;25.75;19.67;;;22.30;43.50;;;;;;5070226;28;20429;-48
2022/04/23 11:45:17;;;;;;;24.10;19.75;;;22.40;45.50;;;;;;5072551;28;20033;-42
2022/04/23 11:47:43;;;;;;;25.75;19.40;;;22.20;43.90;;;;;;5071407;28;20418;-52
2022/04/23 11:50:12;;;;;;;24.10;19.50;;;22.20;44.80;;;;;;5071546;28;20141;-44
2022/04/23 11:52:42;;;;;;;22.65;18.63;;;22.00;44.90;;;;;;5068741;28;20021;-46
2022/04/23 11:55:20;;;;;;;22.83;19.17;;;21.90;44.90;;;;;;5071847;28;20032;-51
2022/04/23 11:57:59;;;;;;;26.33;18.52;;;22.10;44.20;;;;;;5068540;28;20082;-44
2022/04/23 12:00:26;;;;;;;23.17;20.63;;;22.90;43.90;;;;;;5072974;28;20040;-50
2022/04/23 12:02:53;;;;;;;21.45;19.10;;;22.20;41.60;;;;;;5072788;28;20025;-49
2022/04/23 12:05:29;;;;;;;23.65;19.23;;;21.60;45.10;;;;;;5072243;28;20031;-42
2022/04/23 12:07:59;;;;;;;30.42;21.08;;;21.50;46.50;;;;;;5073371;28;20459;-46
2022/04/23 12:10:29;;;;;;;24.30;20.25;;;21.60;44.00;;;;;;5072177;28;20055;-47
2022/04/23 12:13:00;;;;;;;25.98;20.48;;;22.10;44.00;;;;;;5072220;28;20467;-47
2022/04/23 12:15:25;;;;;;;23.35;19.80;;;22.30;43.80;;;;;;5071868;28;20039;-49
2022/04/23 12:17:51;;;;;;;25.85;20.80;;;22.40;43.80;;;;;;5072440;28;20048;-45
2022/04/23 12:20:21;;;;;;;24.33;19.48;;;21.90;43.30;;;;;;5072700;28;20471;-52
2022/04/23 12:23:01;;;;;;;25.95;21.27;;;21.70;44.30;;;;;;5071913;28;20031;-54
2022/04/23 12:25:29;;;;;;;25.23;19.55;;;21.40;44.20;;;;;;5072769;28;20024;-44
2022/04/23 12:42:03;;;;;;;26.50;21.25;;;21.10;46.70;;;;;;5070573;28;20089;-49
2022/04/23 12:44:32;;;;;;;25.52;20.55;;;21.00;45.70;;;;;;5071177;28;20017;-43
2022/04/23 12:47:00;;;;;;;25.10;20.55;;;20.90;46.90;;;;;;5072536;28;20032;-48
2022/04/23 12:49:49;;;;;;;26.02;21.02;;;20.80;46.80;;;;;;5071902;28;20017;-48
2022/04/23 12:52:28;;;;;;;26.17;21.63;;;20.40;47.20;;;;;;5070641;28;20491;-47
2022/04/23 12:55:19;;;;;;;28.27;21.00;;;20.40;47.90;;;;;;5070186;28;20033;-57
2022/04/23 12:57:49;;;;;;;25.10;21.17;;;20.20;48.40;;;;;;5070537;28;20046;-47
2022/04/23 13:00:23;;;;;;;27.38;20.80;;;20.20;48.50;;;;;;5068332;28;20036;-47
2022/04/23 13:02:56;;;;;;;26.50;21.35;;;20.10;48.40;;;;;;5072348;28;20435;-43
2022/04/23 13:05:22;;;;;;;25.65;20.83;;;19.80;48.00;;;;;;5072462;28;20027;-44
2022/04/23 13:10:32;;;;;;;27.83;21.05;;;19.40;50.50;;;;;;5068542;28;20090;-51
2022/04/23 13:12:59;;;;;;;28.15;21.50;;;19.70;51.30;;;;;;5071394;28;20028;-44
2022/04/23 13:15:26;;;;;;;27.83;21.85;;;19.50;50.10;;;;;;5072147;28;20060;-42